航空気象通報

ウインドサーファーのための航空気象通報による風予報です。

9/3-9/5の航空気象通報

2017年09月03日 23時52分48秒 | TAF
羽田空港
TAF RJTT 031105Z 0312/0418 16010KT 8000 FEW010 BKN020
BECMG 0314/0316 34010KT
BECMG 0320/0322 04014KT
日本時間3日21-23時:160度から10ノットの風
23時-4日01時:風が変化
01-05時:340度から10ノットの風
05-07時:風が変化
07時-5日03時:040度から14ノットの風


静岡空港
TAF RJNS 031105Z 0312/0418 35005KT 9999 FEW020 SCT030
BECMG 0322/0400 07010KT
BECMG 0412/0415 35004KT
日本時間3日21時-4日07時:350度から5ノットの風
07-09時:風が変化
09-21時:070度から10ノットの風
21-24時:風が変化
5日00-03時:350度から4ノットの風


福岡空港
TAF RJFF 031107Z 0312/0418 03005KT 9999 FEW030
BECMG 0312/0314 13004KT
BECMG 0406/0409 05005KT
BECMG 0412/0415 13004KT
日本時間3日21時:030度から5ノットの風
21-23時:風が変化
23時-4日15時:130度から4ノットの風
15-18時:風が変化
18-21時:050度から5ノットの風
21-24時:風が変化
5日00-03時:130度から4ノットの風


那覇空港
TAF ROAH 031106Z 0312/0418 14008KT 9999 FEW015 SCT030 BKN045
TEMPO 0312/0317 4000 TSRA FEW008 SCT015 FEW020CB BKN030
TEMPO 0317/0319 4000 SHRA FEW008 SCT015 FEW020CB BKN030
BECMG 0400/0403 21011KT
日本時間3日21時-4日09時:140度から8ノットの風
09-12時:風が変化
12時-5日03時:210度から11ノットの風

但し、3日21時-4日02時の間:時々
但し、4日02-04時の間:時々

石垣空港
TAF ROIG 031109Z 0312/0418 27004KT 9999 FEW015 SCT030
日本時間3日21時-5日03時:270度から4ノットの風


マウイのカフルイ空港
PHOG 031128Z 0312/0412 04006KT P6SM FEW030 SCT050
FM031900 04014G23KT P6SM FEW030 SCT050
FM040500 VRB06KT P6SM FEW030 FEW050 AMD LTD TO VIS AND WIND TIL 031600
ハワイ時間3日02-09時:040度から6ノットの風
09-19時:040度から14ノット、突風23ノット
19時-4日02時:風向不定6ノットの風


サイパン空港
TAF PGSN 031133Z 0312/0412 07009KT P6SM VCSH SCT020 SCT050
マリアナ時間3日22時-4日22時:070度から9ノットの風

コメント
この記事をはてなブックマークに追加